sensor_id;sensor_type;location;lat;lon;timestamp;pressure;altitude;pressure_sealevel;temperature;humidity
69127;BME280;56688;50.234;19.292;2022-09-03T00:01:02;98786.80;;;8.99;74.39
69127;BME280;56688;50.234;19.292;2022-09-03T00:03:38;98788.39;;;8.99;74.14
69127;BME280;56688;50.234;19.292;2022-09-03T00:06:13;98782.70;;;8.99;73.85
69127;BME280;56688;50.234;19.292;2022-09-03T00:08:51;98781.36;;;8.97;74.67
69127;BME280;56688;50.234;19.292;2022-09-03T00:11:44;98783.07;;;8.94;74.55
69127;BME280;56688;50.234;19.292;2022-09-03T00:14:22;98782.77;;;8.94;74.20
69127;BME280;56688;50.234;19.292;2022-09-03T00:16:55;98780.64;;;8.94;74.48
69127;BME280;56688;50.234;19.292;2022-09-03T00:19:26;98778.37;;;8.95;74.36
69127;BME280;56688;50.234;19.292;2022-09-03T00:21:59;98778.46;;;8.95;74.71
69127;BME280;56688;50.234;19.292;2022-09-03T00:24:33;98774.33;;;8.96;74.49
69127;BME280;56688;50.234;19.292;2022-09-03T00:27:05;98775.87;;;8.95;74.35
69127;BME280;56688;50.234;19.292;2022-09-03T00:29:39;98773.31;;;8.92;74.51
69127;BME280;56688;50.234;19.292;2022-09-03T00:32:14;98772.73;;;8.87;74.77
69127;BME280;56688;50.234;19.292;2022-09-03T00:34:49;98767.35;;;8.83;74.93
69127;BME280;56688;50.234;19.292;2022-09-03T00:37:17;98766.39;;;8.81;74.99
69127;BME280;56688;50.234;19.292;2022-09-03T00:39:44;98763.84;;;8.80;74.66
69127;BME280;56688;50.234;19.292;2022-09-03T00:58:04;98763.87;;;8.60;73.80
69127;BME280;56688;50.234;19.292;2022-09-03T01:00:38;98761.33;;;8.58;74.11
69127;BME280;56688;50.234;19.292;2022-09-03T01:03:10;98764.85;;;8.58;74.17
69127;BME280;56688;50.234;19.292;2022-09-03T01:05:47;98759.41;;;8.59;74.50
69127;BME280;56688;50.234;19.292;2022-09-03T01:11:23;98764.34;;;8.59;74.44
69127;BME280;56688;50.234;19.292;2022-09-03T01:14:04;98762.44;;;8.59;74.03
69127;BME280;56688;50.234;19.292;2022-09-03T01:19:15;98769.20;;;8.56;73.99
69127;BME280;56688;50.234;19.292;2022-09-03T01:25:11;98768.93;;;8.50;74.30
69127;BME280;56688;50.234;19.292;2022-09-03T01:27:43;98765.67;;;8.49;74.00
69127;BME280;56688;50.234;19.292;2022-09-03T01:30:17;98771.14;;;8.53;74.27
69127;BME280;56688;50.234;19.292;2022-09-03T01:35:32;98770.33;;;8.57;74.17
69127;BME280;56688;50.234;19.292;2022-09-03T01:44:02;98777.02;;;8.54;74.93
69127;BME280;56688;50.234;19.292;2022-09-03T01:46:38;98772.80;;;8.52;74.82
69127;BME280;56688;50.234;19.292;2022-09-03T01:51:33;98767.41;;;8.51;75.65
69127;BME280;56688;50.234;19.292;2022-09-03T02:02:48;98783.34;;;8.45;74.67
69127;BME280;56688;50.234;19.292;2022-09-03T02:05:20;98780.13;;;8.42;74.40
69127;BME280;56688;50.234;19.292;2022-09-03T02:13:01;98776.02;;;8.19;75.61
69127;BME280;56688;50.234;19.292;2022-09-03T02:15:30;98773.98;;;8.12;75.94
69127;BME280;56688;50.234;19.292;2022-09-03T02:18:02;98777.08;;;8.09;76.35
69127;BME280;56688;50.234;19.292;2022-09-03T02:20:31;98776.34;;;8.11;76.17
69127;BME280;56688;50.234;19.292;2022-09-03T02:22:59;98777.00;;;8.10;76.01
69127;BME280;56688;50.234;19.292;2022-09-03T02:25:35;98779.37;;;8.03;75.93
69127;BME280;56688;50.234;19.292;2022-09-03T02:28:04;98781.25;;;7.95;76.26
69127;BME280;56688;50.234;19.292;2022-09-03T02:30:43;98780.23;;;7.93;76.96
69127;BME280;56688;50.234;19.292;2022-09-03T02:33:10;98778.94;;;7.89;76.96
69127;BME280;56688;50.234;19.292;2022-09-03T02:35:38;98777.61;;;7.88;77.22
69127;BME280;56688;50.234;19.292;2022-09-03T02:38:11;98777.98;;;7.89;77.33
69127;BME280;56688;50.234;19.292;2022-09-03T02:40:38;98782.82;;;7.92;77.45
69127;BME280;56688;50.234;19.292;2022-09-03T02:43:10;98782.42;;;7.96;77.28
69127;BME280;56688;50.234;19.292;2022-09-03T02:45:46;98784.46;;;8.00;77.25
69127;BME280;56688;50.234;19.292;2022-09-03T02:48:17;98788.58;;;8.03;77.21
69127;BME280;56688;50.234;19.292;2022-09-03T02:50:47;98792.77;;;8.05;77.39
69127;BME280;56688;50.234;19.292;2022-09-03T02:53:14;98788.33;;;8.03;77.18
69127;BME280;56688;50.234;19.292;2022-09-03T02:55:41;98794.09;;;8.03;76.93
69127;BME280;56688;50.234;19.292;2022-09-03T02:58:08;98791.14;;;8.00;76.18
69127;BME280;56688;50.234;19.292;2022-09-03T03:00:35;98793.34;;;7.98;75.82
69127;BME280;56688;50.234;19.292;2022-09-03T03:03:04;98790.01;;;7.96;75.63
69127;BME280;56688;50.234;19.292;2022-09-03T03:05:42;98791.98;;;7.85;76.06
69127;BME280;56688;50.234;19.292;2022-09-03T03:08:10;98795.63;;;7.72;76.03
69127;BME280;56688;50.234;19.292;2022-09-03T03:10:37;98794.13;;;7.66;76.44
69127;BME280;56688;50.234;19.292;2022-09-03T03:13:04;98792.90;;;7.66;77.25
69127;BME280;56688;50.234;19.292;2022-09-03T03:15:31;98792.45;;;7.62;77.04
69127;BME280;56688;50.234;19.292;2022-09-03T03:17:58;98791.61;;;7.55;76.86
69127;BME280;56688;50.234;19.292;2022-09-03T03:20:25;98788.16;;;7.52;77.48
69127;BME280;56688;50.234;19.292;2022-09-03T03:22:51;98791.71;;;7.56;78.00
69127;BME280;56688;50.234;19.292;2022-09-03T03:25:18;98787.19;;;7.60;78.21
69127;BME280;56688;50.234;19.292;2022-09-03T03:27:45;98793.91;;;7.57;77.69
69127;BME280;56688;50.234;19.292;2022-09-03T03:30:13;98795.22;;;7.51;77.91
69127;BME280;56688;50.234;19.292;2022-09-03T03:32:40;98795.98;;;7.49;78.29
69127;BME280;56688;50.234;19.292;2022-09-03T03:35:07;98795.25;;;7.50;78.26
69127;BME280;56688;50.234;19.292;2022-09-03T03:37:34;98792.98;;;7.54;78.40
69127;BME280;56688;50.234;19.292;2022-09-03T03:40:01;98796.40;;;7.57;78.59
69127;BME280;56688;50.234;19.292;2022-09-03T03:42:32;98795.56;;;7.53;78.55
69127;BME280;56688;50.234;19.292;2022-09-03T03:44:59;98802.13;;;7.49;78.56
69127;BME280;56688;50.234;19.292;2022-09-03T03:47:28;98802.02;;;7.50;78.93
69127;BME280;56688;50.234;19.292;2022-09-03T03:49:58;98798.85;;;7.52;78.77
69127;BME280;56688;50.234;19.292;2022-09-03T03:52:26;98796.47;;;7.52;78.32
69127;BME280;56688;50.234;19.292;2022-09-03T03:54:53;98793.92;;;7.51;77.68
69127;BME280;56688;50.234;19.292;2022-09-03T03:57:21;98796.51;;;7.49;77.96
69127;BME280;56688;50.234;19.292;2022-09-03T03:59:49;98799.01;;;7.47;78.48
69127;BME280;56688;50.234;19.292;2022-09-03T04:02:17;98798.04;;;7.46;78.82
69127;BME280;56688;50.234;19.292;2022-09-03T04:04:44;98797.04;;;7.49;78.53
69127;BME280;56688;50.234;19.292;2022-09-03T04:07:11;98794.25;;;7.50;78.35
69127;BME280;56688;50.234;19.292;2022-09-03T04:09:38;98794.83;;;7.51;78.43
69127;BME280;56688;50.234;19.292;2022-09-03T04:12:05;98792.04;;;7.52;78.50
69127;BME280;56688;50.234;19.292;2022-09-03T04:14:34;98792.69;;;7.55;78.53
69127;BME280;56688;50.234;19.292;2022-09-03T04:17:01;98786.52;;;7.60;78.37
69127;BME280;56688;50.234;19.292;2022-09-03T04:19:28;98784.30;;;7.62;78.15
69127;BME280;56688;50.234;19.292;2022-09-03T04:21:56;98778.64;;;7.67;77.97
69127;BME280;56688;50.234;19.292;2022-09-03T04:24:23;98777.63;;;7.71;77.84
69127;BME280;56688;50.234;19.292;2022-09-03T04:26:50;98782.02;;;7.75;77.31
69127;BME280;56688;50.234;19.292;2022-09-03T04:29:17;98781.60;;;7.77;77.59
69127;BME280;56688;50.234;19.292;2022-09-03T04:31:44;98787.45;;;7.77;77.34
69127;BME280;56688;50.234;19.292;2022-09-03T04:34:31;98789.21;;;7.80;77.27
69127;BME280;56688;50.234;19.292;2022-09-03T04:36:58;98788.80;;;7.86;77.29
69127;BME280;56688;50.234;19.292;2022-09-03T04:39:25;98790.97;;;7.94;77.51
69127;BME280;56688;50.234;19.292;2022-09-03T04:41:52;98794.34;;;8.04;77.52
69127;BME280;56688;50.234;19.292;2022-09-03T04:44:18;98796.58;;;8.13;77.56
69127;BME280;56688;50.234;19.292;2022-09-03T04:46:45;98801.89;;;8.23;77.77
69127;BME280;56688;50.234;19.292;2022-09-03T04:49:13;98803.70;;;8.32;77.41
69127;BME280;56688;50.234;19.292;2022-09-03T04:51:40;98805.86;;;8.42;77.86
69127;BME280;56688;50.234;19.292;2022-09-03T04:54:07;98801.16;;;8.49;77.59
69127;BME280;56688;50.234;19.292;2022-09-03T04:56:38;98805.71;;;8.59;77.65
69127;BME280;56688;50.234;19.292;2022-09-03T04:59:07;98803.83;;;8.70;77.41
69127;BME280;56688;50.234;19.292;2022-09-03T05:01:36;98809.38;;;8.81;76.94
69127;BME280;56688;50.234;19.292;2022-09-03T05:04:05;98813.98;;;8.94;76.70
69127;BME280;56688;50.234;19.292;2022-09-03T05:06:33;98821.77;;;9.07;76.47
69127;BME280;56688;50.234;19.292;2022-09-03T05:09:00;98817.61;;;9.20;76.19
69127;BME280;56688;50.234;19.292;2022-09-03T05:11:28;98818.42;;;9.33;75.94
69127;BME280;56688;50.234;19.292;2022-09-03T05:13:57;98812.45;;;9.44;75.64
69127;BME280;56688;50.234;19.292;2022-09-03T05:16:26;98817.77;;;9.57;75.56
69127;BME280;56688;50.234;19.292;2022-09-03T05:18:56;98817.70;;;9.69;74.88
69127;BME280;56688;50.234;19.292;2022-09-03T05:21:24;98824.31;;;9.85;74.85
69127;BME280;56688;50.234;19.292;2022-09-03T05:23:52;98822.07;;;9.98;74.31
69127;BME280;56688;50.234;19.292;2022-09-03T05:26:22;98821.21;;;10.12;73.86
69127;BME280;56688;50.234;19.292;2022-09-03T05:28:57;98820.64;;;10.27;73.60
69127;BME280;56688;50.234;19.292;2022-09-03T05:31:27;98818.95;;;10.42;73.15
69127;BME280;56688;50.234;19.292;2022-09-03T05:33:56;98817.94;;;10.55;72.64
69127;BME280;56688;50.234;19.292;2022-09-03T05:36:28;98817.85;;;10.68;72.71
69127;BME280;56688;50.234;19.292;2022-09-03T05:38:57;98820.89;;;10.83;73.03
69127;BME280;56688;50.234;19.292;2022-09-03T05:41:25;98824.58;;;11.01;72.71
69127;BME280;56688;50.234;19.292;2022-09-03T05:43:53;98817.55;;;11.18;72.20
69127;BME280;56688;50.234;19.292;2022-09-03T05:46:22;98827.17;;;11.42;71.64
69127;BME280;56688;50.234;19.292;2022-09-03T05:48:58;98817.73;;;11.64;71.09
69127;BME280;56688;50.234;19.292;2022-09-03T05:51:27;98816.79;;;11.85;71.06
69127;BME280;56688;50.234;19.292;2022-09-03T05:53:54;98811.57;;;12.05;70.34
69127;BME280;56688;50.234;19.292;2022-09-03T05:56:23;98807.44;;;12.25;69.65
69127;BME280;56688;50.234;19.292;2022-09-03T05:58:52;98808.77;;;12.46;69.42
69127;BME280;56688;50.234;19.292;2022-09-03T06:01:29;98806.69;;;12.65;68.96
69127;BME280;56688;50.234;19.292;2022-09-03T06:06:28;98804.92;;;13.10;67.58
69127;BME280;56688;50.234;19.292;2022-09-03T06:08:57;98805.73;;;13.34;67.23
69127;BME280;56688;50.234;19.292;2022-09-03T06:11:25;98799.74;;;13.58;66.53
69127;BME280;56688;50.234;19.292;2022-09-03T06:13:54;98802.88;;;13.82;66.24
69127;BME280;56688;50.234;19.292;2022-09-03T06:16:22;98804.52;;;14.06;65.33
69127;BME280;56688;50.234;19.292;2022-09-03T06:18:58;98800.84;;;14.28;65.00
69127;BME280;56688;50.234;19.292;2022-09-03T06:21:26;98801.89;;;14.50;65.11
69127;BME280;56688;50.234;19.292;2022-09-03T06:23:55;98801.92;;;14.74;64.54
69127;BME280;56688;50.234;19.292;2022-09-03T06:26:26;98798.89;;;14.97;63.78
69127;BME280;56688;50.234;19.292;2022-09-03T06:28:55;98795.08;;;15.21;63.66
69127;BME280;56688;50.234;19.292;2022-09-03T06:31:23;98793.91;;;15.43;63.01
69127;BME280;56688;50.234;19.292;2022-09-03T06:33:51;98796.30;;;15.62;62.23
69127;BME280;56688;50.234;19.292;2022-09-03T06:36:22;98799.52;;;15.82;61.95
69127;BME280;56688;50.234;19.292;2022-09-03T06:38:51;98797.98;;;16.00;61.59
69127;BME280;56688;50.234;19.292;2022-09-03T06:41:20;98804.29;;;16.15;61.45
69127;BME280;56688;50.234;19.292;2022-09-03T06:43:53;98809.90;;;16.27;60.76
69127;BME280;56688;50.234;19.292;2022-09-03T06:46:22;98810.30;;;16.29;61.06
69127;BME280;56688;50.234;19.292;2022-09-03T06:48:50;98811.16;;;16.26;60.83
69127;BME280;56688;50.234;19.292;2022-09-03T06:51:20;98811.77;;;16.25;60.87
69127;BME280;56688;50.234;19.292;2022-09-03T06:53:49;98807.09;;;16.30;61.23
69127;BME280;56688;50.234;19.292;2022-09-03T06:56:20;98808.13;;;16.42;61.35
69127;BME280;56688;50.234;19.292;2022-09-03T06:58:56;98807.01;;;16.60;60.55
69127;BME280;56688;50.234;19.292;2022-09-03T07:01:25;98806.71;;;16.73;60.17
69127;BME280;56688;50.234;19.292;2022-09-03T07:03:56;98811.98;;;16.98;60.43
69127;BME280;56688;50.234;19.292;2022-09-03T07:06:25;98813.67;;;17.21;59.38
69127;BME280;56688;50.234;19.292;2022-09-03T07:08:53;98811.35;;;17.43;58.24
69127;BME280;56688;50.234;19.292;2022-09-03T07:11:23;98815.61;;;17.57;57.47
69127;BME280;56688;50.234;19.292;2022-09-03T07:13:51;98821.58;;;17.63;57.39
69127;BME280;56688;50.234;19.292;2022-09-03T07:16:21;98830.68;;;17.78;56.89
69127;BME280;56688;50.234;19.292;2022-09-03T07:18:49;98828.58;;;17.80;56.95
69127;BME280;56688;50.234;19.292;2022-09-03T07:21:19;98827.60;;;17.80;56.34
69127;BME280;56688;50.234;19.292;2022-09-03T07:23:47;98828.20;;;17.74;56.97
69127;BME280;56688;50.234;19.292;2022-09-03T07:26:17;98824.13;;;17.67;56.80
69127;BME280;56688;50.234;19.292;2022-09-03T07:28:46;98826.97;;;17.66;57.11
69127;BME280;56688;50.234;19.292;2022-09-03T07:33:46;98817.46;;;17.55;57.50
69127;BME280;56688;50.234;19.292;2022-09-03T07:36:15;98817.41;;;17.56;57.64
69127;BME280;56688;50.234;19.292;2022-09-03T07:38:44;98818.65;;;17.63;58.62
69127;BME280;56688;50.234;19.292;2022-09-03T07:41:13;98821.16;;;17.74;58.28
69127;BME280;56688;50.234;19.292;2022-09-03T07:43:54;98819.36;;;17.79;57.63
69127;BME280;56688;50.234;19.292;2022-09-03T07:46:23;98814.55;;;17.91;57.77
69127;BME280;56688;50.234;19.292;2022-09-03T07:48:53;98815.77;;;18.06;56.73
69127;BME280;56688;50.234;19.292;2022-09-03T07:51:22;98816.34;;;18.16;56.37
69127;BME280;56688;50.234;19.292;2022-09-03T07:53:54;98821.55;;;18.27;56.80
69127;BME280;56688;50.234;19.292;2022-09-03T07:56:22;98823.14;;;18.33;56.70
69127;BME280;56688;50.234;19.292;2022-09-03T07:58:49;98823.16;;;18.39;55.98
69127;BME280;56688;50.234;19.292;2022-09-03T08:01:18;98827.48;;;18.43;55.80
69127;BME280;56688;50.234;19.292;2022-09-03T08:03:48;98825.99;;;18.44;56.01
69127;BME280;56688;50.234;19.292;2022-09-03T08:06:17;98827.98;;;18.43;55.09
69127;BME280;56688;50.234;19.292;2022-09-03T08:08:44;98826.83;;;18.45;55.49
69127;BME280;56688;50.234;19.292;2022-09-03T08:11:14;98829.39;;;18.52;55.85
69127;BME280;56688;50.234;19.292;2022-09-03T08:13:43;98831.84;;;18.82;55.06
69127;BME280;56688;50.234;19.292;2022-09-03T08:16:12;98832.98;;;19.06;54.20
69127;BME280;56688;50.234;19.292;2022-09-03T08:18:39;98830.40;;;19.11;53.72
69127;BME280;56688;50.234;19.292;2022-09-03T08:21:09;98834.35;;;19.26;53.41
69127;BME280;56688;50.234;19.292;2022-09-03T08:23:41;98836.83;;;19.42;53.15
69127;BME280;56688;50.234;19.292;2022-09-03T08:26:09;98837.58;;;19.51;52.52
69127;BME280;56688;50.234;19.292;2022-09-03T08:28:37;98835.48;;;19.52;52.50
69127;BME280;56688;50.234;19.292;2022-09-03T08:31:14;98837.84;;;19.56;52.98
69127;BME280;56688;50.234;19.292;2022-09-03T08:33:46;98834.75;;;19.51;52.21
69127;BME280;56688;50.234;19.292;2022-09-03T08:36:17;98842.11;;;19.47;53.12
69127;BME280;56688;50.234;19.292;2022-09-03T08:38:45;98841.30;;;19.46;52.83
69127;BME280;56688;50.234;19.292;2022-09-03T08:41:19;98842.14;;;19.42;52.35
69127;BME280;56688;50.234;19.292;2022-09-03T08:49:07;98846.18;;;19.33;52.81
69127;BME280;56688;50.234;19.292;2022-09-03T08:51:37;98839.92;;;19.30;52.28
69127;BME280;56688;50.234;19.292;2022-09-03T08:54:08;98838.12;;;19.20;52.49
69127;BME280;56688;50.234;19.292;2022-09-03T08:56:38;98833.67;;;19.13;53.45
69127;BME280;56688;50.234;19.292;2022-09-03T08:59:08;98834.89;;;19.09;53.78
69127;BME280;56688;50.234;19.292;2022-09-03T09:07:08;98832.25;;;19.33;54.37
69127;BME280;56688;50.234;19.292;2022-09-03T09:15:28;98827.42;;;19.33;52.97
69127;BME280;56688;50.234;19.292;2022-09-03T09:20:48;98816.04;;;19.38;53.34
69127;BME280;56688;50.234;19.292;2022-09-03T09:23:23;98813.27;;;19.38;52.81
69127;BME280;56688;50.234;19.292;2022-09-03T09:25:54;98817.61;;;19.40;52.47
69127;BME280;56688;50.234;19.292;2022-09-03T09:28:28;98814.77;;;19.41;52.54
69127;BME280;56688;50.234;19.292;2022-09-03T09:30:57;98814.09;;;19.43;52.34
69127;BME280;56688;50.234;19.292;2022-09-03T09:33:24;98812.05;;;19.39;52.19
69127;BME280;56688;50.234;19.292;2022-09-03T09:35:51;98817.58;;;19.22;52.23
69127;BME280;56688;50.234;19.292;2022-09-03T09:38:31;98815.73;;;19.10;52.73
69127;BME280;56688;50.234;19.292;2022-09-03T09:41:15;98813.77;;;19.05;52.60
69127;BME280;56688;50.234;19.292;2022-09-03T09:43:42;98816.63;;;18.98;52.62
69127;BME280;56688;50.234;19.292;2022-09-03T09:48:48;98812.56;;;18.84;53.42
69127;BME280;56688;50.234;19.292;2022-09-03T09:51:25;98815.80;;;18.88;53.97
69127;BME280;56688;50.234;19.292;2022-09-03T09:54:07;98823.86;;;18.94;53.82
69127;BME280;56688;50.234;19.292;2022-09-03T09:56:38;98828.00;;;19.00;53.29
69127;BME280;56688;50.234;19.292;2022-09-03T09:59:09;98833.79;;;19.00;53.15
69127;BME280;56688;50.234;19.292;2022-09-03T10:01:39;98840.62;;;18.93;52.86
69127;BME280;56688;50.234;19.292;2022-09-03T10:04:09;98841.45;;;18.80;53.54
69127;BME280;56688;50.234;19.292;2022-09-03T10:06:37;98839.42;;;18.75;53.68
69127;BME280;56688;50.234;19.292;2022-09-03T10:09:23;98839.93;;;18.76;54.11
69127;BME280;56688;50.234;19.292;2022-09-03T10:14:36;98833.70;;;18.82;53.80
69127;BME280;56688;50.234;19.292;2022-09-03T10:17:15;98827.98;;;18.76;54.17
69127;BME280;56688;50.234;19.292;2022-09-03T10:28:24;98831.23;;;18.86;53.37
69127;BME280;56688;50.234;19.292;2022-09-03T10:33:29;98828.30;;;18.78;53.92
69127;BME280;56688;50.234;19.292;2022-09-03T10:36:10;98832.44;;;18.78;54.80
69127;BME280;56688;50.234;19.292;2022-09-03T10:38:41;98836.52;;;18.78;54.88
69127;BME280;56688;50.234;19.292;2022-09-03T11:00:10;98820.48;;;18.26;56.21
69127;BME280;56688;50.234;19.292;2022-09-03T11:05:34;98828.30;;;18.23;56.31
69127;BME280;56688;50.234;19.292;2022-09-03T11:08:06;98826.28;;;18.30;56.76
69127;BME280;56688;50.234;19.292;2022-09-03T11:10:40;98829.37;;;18.34;56.10
69127;BME280;56688;50.234;19.292;2022-09-03T11:13:19;98835.06;;;18.37;55.87
69127;BME280;56688;50.234;19.292;2022-09-03T11:15:51;98830.45;;;18.37;55.84
69127;BME280;56688;50.234;19.292;2022-09-03T11:18:32;98829.69;;;18.34;55.91
69127;BME280;56688;50.234;19.292;2022-09-03T11:21:04;98833.43;;;18.28;55.98
69127;BME280;56688;50.234;19.292;2022-09-03T11:23:42;98823.53;;;18.26;55.79
69127;BME280;56688;50.234;19.292;2022-09-03T11:26:14;98823.95;;;18.30;56.17
69127;BME280;56688;50.234;19.292;2022-09-03T11:29:00;98823.41;;;18.28;56.56
69127;BME280;56688;50.234;19.292;2022-09-03T11:34:10;98826.53;;;18.25;56.09
69127;BME280;56688;50.234;19.292;2022-09-03T11:36:49;98816.94;;;18.23;56.15
69127;BME280;56688;50.234;19.292;2022-09-03T11:39:32;98816.52;;;18.23;55.22
69127;BME280;56688;50.234;19.292;2022-09-03T11:42:08;98813.91;;;18.26;56.27
69127;BME280;56688;50.234;19.292;2022-09-03T11:44:39;98809.41;;;18.31;56.09
69127;BME280;56688;50.234;19.292;2022-09-03T11:49:48;98807.33;;;18.38;56.09
69127;BME280;56688;50.234;19.292;2022-09-03T11:52:32;98802.91;;;18.49;56.41
69127;BME280;56688;50.234;19.292;2022-09-03T11:54:59;98804.59;;;18.64;54.94
69127;BME280;56688;50.234;19.292;2022-09-03T11:57:28;98800.92;;;18.77;54.79
69127;BME280;56688;50.234;19.292;2022-09-03T12:00:12;98798.83;;;18.86;55.20
69127;BME280;56688;50.234;19.292;2022-09-03T12:02:45;98794.58;;;19.01;54.45
69127;BME280;56688;50.234;19.292;2022-09-03T12:16:27;98793.05;;;19.42;53.19
69127;BME280;56688;50.234;19.292;2022-09-03T12:19:06;98787.57;;;19.55;53.16
69127;BME280;56688;50.234;19.292;2022-09-03T12:21:39;98780.10;;;19.78;53.05
69127;BME280;56688;50.234;19.292;2022-09-03T12:24:10;98772.95;;;20.22;51.60
69127;BME280;56688;50.234;19.292;2022-09-03T12:26:41;98769.79;;;21.18;50.66
69127;BME280;56688;50.234;19.292;2022-09-03T12:29:24;98761.71;;;22.05;48.70
69127;BME280;56688;50.234;19.292;2022-09-03T12:31:54;98767.55;;;22.70;45.98
69127;BME280;56688;50.234;19.292;2022-09-03T12:34:22;98765.73;;;23.19;43.63
69127;BME280;56688;50.234;19.292;2022-09-03T12:36:53;98758.04;;;23.09;42.82
69127;BME280;56688;50.234;19.292;2022-09-03T12:39:23;98761.15;;;23.10;43.99
69127;BME280;56688;50.234;19.292;2022-09-03T12:42:17;98758.17;;;23.46;43.19
69127;BME280;56688;50.234;19.292;2022-09-03T12:44:45;98757.64;;;23.82;42.92
69127;BME280;56688;50.234;19.292;2022-09-03T12:47:17;98761.54;;;23.75;41.08
69127;BME280;56688;50.234;19.292;2022-09-03T12:50:14;98752.58;;;23.49;42.03
69127;BME280;56688;50.234;19.292;2022-09-03T12:52:45;98746.96;;;23.72;41.44
69127;BME280;56688;50.234;19.292;2022-09-03T13:00:44;98732.42;;;24.75;40.80
69127;BME280;56688;50.234;19.292;2022-09-03T13:03:21;98736.30;;;25.21;39.77
69127;BME280;56688;50.234;19.292;2022-09-03T13:05:53;98728.81;;;25.65;38.82
69127;BME280;56688;50.234;19.292;2022-09-03T13:08:25;98738.50;;;26.09;38.37
69127;BME280;56688;50.234;19.292;2022-09-03T13:10:55;98736.23;;;26.45;37.79
69127;BME280;56688;50.234;19.292;2022-09-03T13:13:26;98734.83;;;26.82;36.85
69127;BME280;56688;50.234;19.292;2022-09-03T13:18:47;98738.23;;;27.12;36.12
69127;BME280;56688;50.234;19.292;2022-09-03T13:35:07;98733.29;;;26.87;36.07
69127;BME280;56688;50.234;19.292;2022-09-03T13:37:44;98725.39;;;27.11;36.78
69127;BME280;56688;50.234;19.292;2022-09-03T13:40:36;98718.46;;;27.49;35.86
69127;BME280;56688;50.234;19.292;2022-09-03T13:43:26;98715.75;;;27.75;34.84
69127;BME280;56688;50.234;19.292;2022-09-03T13:45:59;98720.19;;;27.87;34.44
69127;BME280;56688;50.234;19.292;2022-09-03T13:48:36;98720.42;;;27.92;33.82
69127;BME280;56688;50.234;19.292;2022-09-03T13:59:24;98715.93;;;26.48;36.64
69127;BME280;56688;50.234;19.292;2022-09-03T14:07:33;98717.38;;;26.07;37.73
69127;BME280;56688;50.234;19.292;2022-09-03T14:12:59;98713.98;;;26.47;36.41
69127;BME280;56688;50.234;19.292;2022-09-03T14:15:35;98711.62;;;26.15;37.15
69127;BME280;56688;50.234;19.292;2022-09-03T14:18:18;98712.88;;;26.09;37.34
69127;BME280;56688;50.234;19.292;2022-09-03T14:23:54;98714.71;;;26.44;36.81
69127;BME280;56688;50.234;19.292;2022-09-03T14:26:31;98711.24;;;26.76;36.52
69127;BME280;56688;50.234;19.292;2022-09-03T14:29:14;98714.10;;;27.11;36.08
69127;BME280;56688;50.234;19.292;2022-09-03T14:34:37;98718.83;;;27.34;35.96
69127;BME280;56688;50.234;19.292;2022-09-03T14:55:38;98712.58;;;22.92;42.92
69127;BME280;56688;50.234;19.292;2022-09-03T15:01:27;98706.29;;;22.08;45.41
69127;BME280;56688;50.234;19.292;2022-09-03T15:04:12;98706.77;;;21.78;46.08
69127;BME280;56688;50.234;19.292;2022-09-03T15:09:41;98701.69;;;21.25;47.03
69127;BME280;56688;50.234;19.292;2022-09-03T15:14:44;98700.59;;;20.74;48.20
69127;BME280;56688;50.234;19.292;2022-09-03T15:30:19;98697.10;;;19.79;51.78
69127;BME280;56688;50.234;19.292;2022-09-03T15:35:24;98693.95;;;19.61;51.97
69127;BME280;56688;50.234;19.292;2022-09-03T15:37:57;98693.59;;;19.50;52.42
69127;BME280;56688;50.234;19.292;2022-09-03T15:40:30;98695.41;;;19.43;52.56
69127;BME280;56688;50.234;19.292;2022-09-03T15:43:06;98694.59;;;19.38;52.65
69127;BME280;56688;50.234;19.292;2022-09-03T15:45:37;98699.15;;;19.32;52.68
69127;BME280;56688;50.234;19.292;2022-09-03T15:51:04;98702.19;;;19.07;53.27
69127;BME280;56688;50.234;19.292;2022-09-03T15:53:40;98699.00;;;19.00;53.36
69127;BME280;56688;50.234;19.292;2022-09-03T15:56:19;98702.84;;;18.92;53.46
69127;BME280;56688;50.234;19.292;2022-09-03T15:58:54;98711.32;;;18.82;53.37
69127;BME280;56688;50.234;19.292;2022-09-03T16:01:36;98708.77;;;18.69;53.44
69127;BME280;56688;50.234;19.292;2022-09-03T16:07:15;98719.86;;;18.50;54.37
69127;BME280;56688;50.234;19.292;2022-09-03T16:10:05;98717.23;;;18.40;54.67
69127;BME280;56688;50.234;19.292;2022-09-03T16:13:22;98721.85;;;18.29;55.38
69127;BME280;56688;50.234;19.292;2022-09-03T16:16:07;98722.30;;;18.22;55.86
69127;BME280;56688;50.234;19.292;2022-09-03T16:18:41;98720.70;;;18.16;56.00
69127;BME280;56688;50.234;19.292;2022-09-03T16:21:29;98724.31;;;18.11;56.05
69127;BME280;56688;50.234;19.292;2022-09-03T16:24:01;98723.30;;;18.05;56.21
69127;BME280;56688;50.234;19.292;2022-09-03T16:26:47;98724.93;;;18.03;56.45
69127;BME280;56688;50.234;19.292;2022-09-03T16:29:17;98728.08;;;18.00;57.04
69127;BME280;56688;50.234;19.292;2022-09-03T16:34:47;98724.44;;;17.91;57.45
69127;BME280;56688;50.234;19.292;2022-09-03T16:51:09;98721.30;;;17.37;58.50
69127;BME280;56688;50.234;19.292;2022-09-03T16:53:58;98725.14;;;17.26;58.63
69127;BME280;56688;50.234;19.292;2022-09-03T17:02:15;98729.27;;;16.94;59.94
69127;BME280;56688;50.234;19.292;2022-09-03T17:27:19;98732.86;;;16.05;63.48
69127;BME280;56688;50.234;19.292;2022-09-03T17:30:08;98739.30;;;15.97;63.77
69127;BME280;56688;50.234;19.292;2022-09-03T17:35:32;98749.91;;;15.76;64.43
69127;BME280;56688;50.234;19.292;2022-09-03T17:43:19;98751.89;;;15.50;65.43
69127;BME280;56688;50.234;19.292;2022-09-03T17:45:57;98752.30;;;15.42;65.71
69127;BME280;56688;50.234;19.292;2022-09-03T17:51:05;98764.50;;;15.29;66.03
69127;BME280;56688;50.234;19.292;2022-09-03T17:56:27;98765.73;;;15.19;66.71
69127;BME280;56688;50.234;19.292;2022-09-03T18:01:49;98764.52;;;15.04;67.11